• Join FlightAware (Why Join?)
  • Login
  • US Flag 
09:47PM EDT


 

Airport Tracker/Info


-or-


 

Live Flight TrackerFlight Track Log ✈ UAL3740 ✈ 18-Apr-2013 ✈ KIAD - KPVD

Flight Track Log - Related Links

Times and Time Zones

All times are in EDT time to prevent confusion due to time zone crossing. See the UAL3740 flight status page for this flight to view local times or setup timezone preferences in your user account.

Time Position Orientation Groundspeed Altitude Reporting Facility
EDT Latitude Longitude Course Direction KTS MPH feet Rate Location/Type
08:30AM 38.9667 -77.5333 67° East 208 239 2,300  Level Potomac TRACON
08:31AM 39.0167 -77.5833 322° Northwest 278 320 4,600 2,580 Climbing Potomac TRACON
08:32AM 39.1000 -77.5500 17° North 301 346 7,600 2,700 Climbing Potomac TRACON
08:33AM 39.1500 -77.4667 52° Northeast 308 354 10,000 1,260 Climbing Potomac TRACON
08:34AM 39.1667 -77.3667 78° East 323 372 10,100 900 Climbing Potomac TRACON
08:35AM 39.1333 -77.2667 113° Southeast 330 380 11,800 2,160 Climbing Potomac TRACON
08:36AM 39.0794 -76.6450 67° East  Level FlightAware Approximate
08:37AM 39.0856 -77.0731 108° East 360 414 15,700  Level Washington Center
08:38AM 39.0703 -76.9497 99° East 366 421 17,900 1,620 Climbing Washington Center
08:39AM 39.0844 -76.8164 82° East 359 413 19,000 1,200 Climbing Washington Center
08:40AM 39.1003 -76.6694 82° East 383 441 20,400 1,800 Climbing Washington Center
08:41AM 39.1161 -76.5253 82° East 396 456 22,600 1,260 Climbing Washington Center
08:42AM 39.1317 -76.3756 82° East 408 470 23,000 180 Climbing Washington Center
08:43AM 39.1494 -76.2206 82° East 423 487 23,000  Level Washington Center
08:44AM 39.1686 -76.0789 80° East 430 495 23,000  Level Washington Center
08:45AM 39.1881 -75.9208 81° East 440 506 23,000 1,020 Level Washington Center
08:46AM 39.2592 -75.7953 54° Northeast 435 501 25,100 1,980 Climbing Washington Center
08:47AM 39.3447 -75.6881 44° Northeast 418 481 27,100 1,440 Climbing Washington Center
08:48AM 39.4281 -75.5781 46° Northeast 418 481 28,000 1,080 Climbing Washington Center
08:49AM 39.5728 -75.3925 45° Northeast 434 499 30,000 1,260 Climbing New York Center
08:50AM 39.6561 -75.2819 46° Northeast 434 499 31,300 1,200 Climbing New York Center
08:51AM 39.7375 -75.1686 47° Northeast 434 499 32,500 840 Climbing New York Center
08:53AM 39.8106 -75.0569 50° Northeast 442 509 33,000 240 Climbing New York Center
08:54AM 39.8964 -74.9322 48° Northeast 448 516 33,000  Level New York Center
08:54AM 39.9950 -74.7944 47° Northeast 462 532 33,000  Level New York Center
08:56AM 40.0581 -74.6489 60° Northeast 462 532 33,000  Level New York Center
08:56AM 40.1172 -74.4975 63° Northeast 457 526 33,000  Level New York Center
08:57AM 40.1694 -74.3619 63° Northeast 462 532 33,000 -540 Level New York Center
08:58AM 40.2283 -74.2072 63° Northeast 462 532 32,000 -1,500 Descending New York Center
09:01AM 40.3703 -73.8400 63° Northeast 460 529 28,000 -1,500 Descending Boston Center
09:02AM 40.4286 -73.6722 65° Northeast 455 524 27,000 -540 Descending Boston Center
09:03AM 40.4842 -73.5206 64° Northeast 461 531 27,000 -420 Level Boston Center
09:04AM 40.5375 -73.3714 65° Northeast 456 525 26,200 -1,260 Descending Boston Center
09:05AM 40.5931 -73.2161 65° Northeast 456 525 24,600 -1,620 Descending Boston Center
09:06AM 40.6481 -73.0664 64° Northeast 456 525 23,000 -1,680 Descending Boston Center
09:07AM 40.7031 -72.9219 63° Northeast 451 519 21,300 -1,560 Descending Boston Center
09:08AM 40.7514 -72.7936 64° Northeast 445 512 19,900 -1,740 Descending Boston Center
09:09AM 40.8039 -72.6458 65° Northeast 440 506 17,900 -2,220 Descending Boston Center
09:10AM 40.8583 -72.4839 66° East 440 506 15,600 -1,920 Descending Boston Center
09:11AM 40.8978 -72.3769 64° Northeast 425 489 14,000 -1,560 Descending Boston Center
09:11AM 40.9164 -72.3275 64° Northeast 409 471 13,600 -1,680 Descending Boston Center
09:12AM 40.9517 -72.2203 66° East 399 459 12,400 -1,620 Descending Boston Center
09:13AM 40.9869 -72.1294 63° Northeast 385 443 11,200 -840 Descending Boston Center
09:14AM 41.0158 -72.0358 68° East 368 423 11,000 -660 Descending Boston Center
09:14AM 41.0283 -71.9889 71° East 348 400 10,500 -1,500 Descending Boston Center
09:15AM 41.0675 -71.8922 62° Northeast 316 364 9,100 -1,440 Descending Boston Center
09:16AM 41.1086 -71.8342 47° Northeast 306 352 8,000 -1,620 Descending Boston Center
09:16AM 41.1192 -71.8119 58° Northeast 293 337 7,500 -1,620 Descending Boston Center
09:17AM 41.1792 -71.7700 28° Northeast 276 318 6,200 -1,380 Descending Boston Center
09:18AM 41.2394 -71.7306 26° Northeast 273 314 5,100 -660 Descending Boston Center
09:19AM 41.2933 -71.6997 23° Northeast 272 313 5,100  Level Boston Center
09:19AM 41.3161 -71.6856 25° Northeast 263 303 5,100  Level Boston Center
09:20AM 41.3661 -71.6600 21° North 278 320 5,100  Level Boston Center
09:20AM 41.3953 -71.6458 20° North 268 308 5,100 -600 Level Boston Center
09:21AM 41.4344 -71.6206 26° Northeast 272 313 4,500 -1,140 Descending Boston Center
09:21AM 41.4617 -71.6092 17° North 268 308 4,000 -1,200 Descending Boston Center
09:22AM 41.5261 -71.5833 17° North 258 297 2,900 -1,020 Descending Boston Center
09:23AM 41.5717 -71.5578 23° Northeast 218 251 2,100 -480 Descending Boston Center
09:24AM 41.6150 -71.5211 32° Northeast 184 212 2,100 -300 Level Boston Center
09:25AM 41.6525 -71.4900 32° Northeast 148 170 1,600 -480 Descending Boston Center
09:26AM 41.6939 -71.4642 25° Northeast 163 188 1,200 -360 Descending Boston Center
09:28AM 41.7167 -71.4167 26° Northeast  Level FlightAware Approximate
09:35AM 41.7240 -71.4282 26° Northeast  Level Estimated
09:36AM 41.7240 -71.4282 26° Northeast  Level Estimated
09:37AM 41.7240 -71.4282 26° Northeast  Level Estimated
09:38AM 41.7240 -71.4282 26° Northeast  Level Estimated